createdAt,value
2017-05-02T00:00:31.518Z,13.72
2017-05-02T00:01:41.865Z,13.65
2017-05-02T00:02:51.901Z,13.66
2017-05-02T00:04:02.254Z,13.57
2017-05-02T00:05:12.620Z,13.6
2017-05-02T00:06:22.641Z,13.62
2017-05-02T00:07:32.986Z,13.5
2017-05-02T00:08:43.329Z,13.45
2017-05-02T00:09:53.707Z,13.5
2017-05-02T00:11:04.054Z,13.47
2017-05-02T00:12:13.829Z,13.35
2017-05-02T00:13:24.209Z,13.32
2017-05-02T00:14:34.793Z,13.39
2017-05-02T00:15:45.141Z,13.32
2017-05-02T00:16:55.172Z,13.35
2017-05-02T00:18:05.504Z,13.21
2017-05-02T00:19:15.856Z,13.39
2017-05-02T00:20:26.201Z,13.31
2017-05-02T00:21:36.534Z,13.32
2017-05-02T00:22:46.583Z,13.36
2017-05-02T00:23:56.919Z,13.36
2017-05-02T00:25:07.286Z,13.35
2017-05-02T00:26:17.315Z,13.29
2017-05-02T00:27:27.361Z,13.27
2017-05-02T00:28:37.708Z,13.31
2017-05-02T00:29:48.052Z,13.21
2017-05-02T00:30:58.405Z,13.28
2017-05-02T00:32:08.435Z,13.21
2017-05-02T00:33:18.797Z,13.31
2017-05-02T00:34:29.153Z,13.2
2017-05-02T00:35:39.205Z,13.29
2017-05-02T00:36:49.555Z,13.21
2017-05-02T00:37:59.913Z,13.16
2017-05-02T00:39:09.959Z,13.21
2017-05-02T00:40:19.686Z,13.28
2017-05-02T00:41:30.064Z,13.29
2017-05-02T00:42:40.434Z,13.16
2017-05-02T00:43:50.790Z,13.16
2017-05-02T00:45:01.145Z,13.21
2017-05-02T00:46:11.506Z,13.21
2017-05-02T00:47:21.866Z,13.25
2017-05-02T00:48:31.921Z,13.28
2017-05-02T00:49:42.275Z,13.25
2017-05-02T00:50:52.613Z,13.29
2017-05-02T00:52:02.953Z,13.28
2017-05-02T00:53:12.979Z,13.35
2017-05-02T00:54:23.332Z,13.29
2017-05-02T00:55:33.677Z,13.25
2017-05-02T00:56:44.024Z,13.28
2017-05-02T00:57:54.366Z,13.35
2017-05-02T00:59:04.389Z,13.27
2017-05-02T01:00:14.728Z,13.28
2017-05-02T01:01:25.076Z,13.27
2017-05-02T01:02:35.414Z,13.27
2017-05-02T01:03:45.782Z,13.32
2017-05-02T01:04:55.842Z,13.36
2017-05-02T01:06:06.189Z,13.39
2017-05-02T01:07:15.900Z,13.36
2017-05-02T01:08:25.947Z,13.39
2017-05-02T01:09:36.305Z,13.37
2017-05-02T01:10:46.023Z,13.4
2017-05-02T01:11:56.383Z,13.35
2017-05-02T01:13:06.725Z,13.4
2017-05-02T01:14:17.068Z,13.35
2017-05-02T01:15:27.427Z,13.37
2017-05-02T01:16:37.769Z,13.36
2017-05-02T01:17:48.145Z,13.37
2017-05-02T01:18:58.487Z,13.31
2017-05-02T01:20:08.860Z,13.27
2017-05-02T01:21:18.317Z,13.36
2017-05-02T01:22:28.648Z,13.36
2017-05-02T01:23:38.699Z,13.36
2017-05-02T01:24:49.041Z,13.44
2017-05-02T01:25:59.088Z,13.47
2017-05-02T01:27:09.110Z,13.45
2017-05-02T01:28:19.456Z,13.44
2017-05-02T01:29:29.811Z,13.45
2017-05-02T01:30:39.845Z,13.47
2017-05-02T01:31:50.192Z,13.53
2017-05-02T01:32:59.904Z,13.35
2017-05-02T01:34:10.266Z,13.31
2017-05-02T01:35:20.622Z,13.39
2017-05-02T01:36:30.968Z,13.36
2017-05-02T01:37:41.326Z,13.4
2017-05-02T01:38:51.351Z,13.39
2017-05-02T01:40:01.710Z,13.45
2017-05-02T01:41:11.450Z,13.47
2017-05-02T01:42:21.477Z,13.47
2017-05-02T01:43:31.851Z,13.47
2017-05-02T01:44:42.206Z,13.35
2017-05-02T01:45:52.483Z,13.29
2017-05-02T01:47:02.832Z,13.24
2017-05-02T01:48:13.189Z,13.16
2017-05-02T01:49:23.529Z,13.06
2017-05-02T01:50:33.868Z,12.99
2017-05-02T01:51:43.922Z,12.84
2017-05-02T01:52:54.285Z,12.71
2017-05-02T01:54:04.630Z,12.61
2017-05-02T01:55:14.981Z,12.55
2017-05-02T01:56:25.316Z,12.41
2017-05-02T01:57:35.656Z,12.23
2017-05-02T01:58:45.691Z,12.18
2017-05-02T01:59:56.055Z,11.98
2017-05-02T02:01:06.408Z,11.94
2017-05-02T02:02:16.747Z,11.76
2017-05-02T02:03:27.100Z,11.7
2017-05-02T02:04:37.456Z,11.56
2017-05-02T02:05:47.786Z,11.42
2017-05-02T02:06:58.166Z,11.26
2017-05-02T02:08:08.521Z,11.2
2017-05-02T02:09:18.878Z,11.2
2017-05-02T02:10:28.922Z,11.16
2017-05-02T02:11:39.269Z,11.08
2017-05-02T02:12:49.607Z,10.95
2017-05-02T02:13:59.964Z,10.94
2017-05-02T02:15:10.325Z,10.87
2017-05-02T02:16:20.687Z,10.85
2017-05-02T02:17:31.045Z,10.84
2017-05-02T02:18:41.075Z,10.83
2017-05-02T02:19:51.424Z,10.95
2017-05-02T02:21:01.771Z,10.85
2017-05-02T02:22:12.113Z,10.83
2017-05-02T02:23:22.461Z,10.84
2017-05-02T02:24:32.801Z,10.83
2017-05-02T02:25:43.163Z,10.75
2017-05-02T02:26:53.516Z,10.63
2017-05-02T02:28:03.564Z,10.58
2017-05-02T02:29:13.621Z,10.51
2017-05-02T02:30:23.994Z,10.57
2017-05-02T02:31:34.039Z,10.41
2017-05-02T02:32:44.394Z,10.35
2017-05-02T02:33:54.422Z,10.33
2017-05-02T02:35:04.775Z,10.38
2017-05-02T02:36:14.508Z,10.28
2017-05-02T02:37:24.838Z,10.29
2017-05-02T02:38:35.180Z,10.29
2017-05-02T02:39:45.551Z,10.31
2017-05-02T02:40:55.259Z,10.23
2017-05-02T02:42:05.621Z,10.14
2017-05-02T02:43:15.997Z,10.21
2017-05-02T02:44:26.032Z,10.23
2017-05-02T02:45:36.376Z,10.2
2017-05-02T02:46:46.387Z,10.23
2017-05-02T02:47:56.787Z,10.26
2017-05-02T02:49:07.149Z,10.23
2017-05-02T02:50:17.159Z,10.31
2017-05-02T02:51:26.870Z,10.33
2017-05-02T02:52:36.907Z,10.36
2017-05-02T02:53:47.243Z,10.39
2017-05-02T02:54:57.590Z,10.38
2017-05-02T02:56:07.925Z,10.42
2017-05-02T02:57:18.269Z,10.49
2017-05-02T02:58:28.298Z,10.49
2017-05-02T02:59:38.337Z,10.55
2017-05-02T03:00:48.354Z,10.59
2017-05-02T03:01:58.094Z,10.61
2017-05-02T03:33:00.413Z,8.01
2017-05-02T03:34:10.441Z,7.99
2017-05-02T03:35:20.443Z,8.09
2017-05-02T03:36:30.791Z,8.17
2017-05-02T03:37:41.146Z,8.13
2017-05-02T03:38:51.190Z,8.36
2017-05-02T03:40:01.536Z,8.44
2017-05-02T03:41:11.896Z,8.64
2017-05-02T03:42:21.930Z,8.69
2017-05-02T03:43:31.650Z,8.97
2017-05-02T03:44:42.002Z,9.14
2017-05-02T03:45:52.352Z,9.27
2017-05-02T03:47:02.701Z,9.41
2017-05-02T03:48:13.049Z,9.59
2017-05-02T03:49:22.762Z,9.64
2017-05-02T03:50:32.487Z,9.88
2017-05-02T03:51:42.520Z,9.82
2017-05-02T03:52:52.870Z,10.03
2017-05-02T03:54:03.229Z,10.11
2017-05-02T03:55:13.578Z,10.23
2017-05-02T03:56:23.614Z,10.26
2017-05-02T03:57:33.657Z,10.39
2017-05-02T03:58:44.017Z,10.57
2017-05-02T03:59:54.375Z,10.65
2017-05-02T04:01:04.732Z,10.66
2017-05-02T04:02:15.090Z,10.76
2017-05-02T04:03:25.430Z,10.76
2017-05-02T04:04:35.477Z,10.9
2017-05-02T04:05:45.844Z,10.84
2017-05-02T04:06:55.246Z,10.87
2017-05-02T04:08:05.637Z,10.87
2017-05-02T04:09:16.010Z,10.83
2017-05-02T04:10:25.408Z,10.87
2017-05-02T04:11:35.769Z,11
2017-05-02T04:12:45.478Z,11.02
2017-05-02T04:13:55.822Z,10.98
2017-05-02T04:15:06.172Z,11.02
2017-05-02T04:16:16.515Z,11.08
2017-05-02T04:17:26.858Z,11.1
2017-05-02T04:18:37.211Z,11.1
2017-05-02T04:19:47.554Z,11.1
2017-05-02T04:20:57.900Z,11.21
2017-05-02T04:22:08.231Z,11.2
2017-05-02T04:23:18.275Z,11.2
2017-05-02T04:24:28.321Z,11.16
2017-05-02T04:25:38.049Z,11.21
2017-05-02T04:26:48.093Z,11.18
2017-05-02T04:27:58.436Z,11.18
2017-05-02T04:29:08.782Z,11.38
2017-05-02T04:30:19.138Z,11.38
2017-05-02T04:31:29.497Z,11.31
2017-05-02T04:32:39.848Z,11.34
2017-05-02T04:33:49.902Z,11.43
2017-05-02T04:35:00.257Z,11.31
2017-05-02T04:36:10.613Z,11.38
2017-05-02T04:37:20.644Z,11.39
2017-05-02T04:38:31.001Z,11.34
2017-05-02T04:39:41.344Z,11.33
2017-05-02T04:40:51.684Z,11.41
2017-05-02T04:42:01.725Z,11.51
2017-05-02T04:43:12.088Z,11.53
2017-05-02T04:44:22.432Z,11.63
2017-05-02T04:45:32.780Z,11.63
2017-05-02T04:46:43.121Z,11.64
2017-05-02T04:47:53.160Z,11.81
2017-05-02T04:49:03.508Z,11.81
2017-05-02T04:50:13.540Z,11.81
2017-05-02T04:51:23.884Z,11.91
2017-05-02T04:52:34.237Z,11.86
2017-05-02T04:53:44.270Z,11.89
2017-05-02T04:54:54.613Z,12.04
2017-05-02T04:56:04.638Z,12.13
2017-05-02T04:57:14.657Z,12.13
2017-05-02T04:58:25.014Z,12.13
2017-05-02T04:59:35.378Z,12.19
2017-05-02T05:00:45.728Z,12.23
2017-05-02T05:01:55.755Z,12.2
2017-05-02T05:03:06.137Z,12.18
2017-05-02T05:04:16.497Z,12.23
2017-05-02T05:05:26.524Z,12.23
2017-05-02T05:06:36.913Z,12.25
2017-05-02T05:07:46.942Z,12.31
2017-05-02T05:08:56.978Z,12.34
2017-05-02T05:10:07.325Z,12.47
2017-05-02T05:11:17.672Z,12.43
2017-05-02T05:12:27.696Z,12.43
2017-05-02T05:13:37.732Z,12.59
2017-05-02T05:14:48.081Z,12.61
2017-05-02T05:15:58.418Z,12.66
2017-05-02T05:17:08.442Z,12.77
2017-05-02T05:18:18.786Z,12.71
2017-05-02T05:19:29.128Z,12.71
2017-05-02T05:20:39.470Z,12.74
2017-05-02T05:21:49.502Z,13.02
2017-05-02T05:22:59.852Z,13.11
2017-05-02T05:24:10.196Z,13.17
2017-05-02T05:25:20.538Z,13.29
2017-05-02T05:26:30.884Z,13.37
2017-05-02T05:27:41.238Z,13.39
2017-05-02T05:28:51.603Z,13.36
2017-05-02T05:30:01.639Z,13.36
2017-05-02T05:31:12.005Z,13.37
2017-05-02T05:32:22.347Z,13.48
2017-05-02T05:33:32.647Z,13.53
2017-05-02T05:34:42.691Z,13.63
2017-05-02T05:35:53.043Z,13.62
2017-05-02T05:37:03.396Z,13.57
2017-05-02T05:38:13.743Z,13.62
2017-05-02T05:39:24.087Z,13.65
2017-05-02T05:40:34.431Z,13.68
2017-05-02T05:41:44.457Z,13.6
2017-05-02T05:42:54.811Z,13.58
2017-05-02T05:44:05.186Z,13.75
2017-05-02T05:45:15.521Z,13.83
2017-05-02T05:46:25.849Z,13.94
2017-05-02T05:47:36.180Z,14.05
2017-05-02T05:48:46.536Z,14.13
2017-05-02T05:49:56.586Z,14.28
2017-05-02T05:51:06.613Z,14.42
2017-05-02T05:52:16.980Z,14.45
2017-05-02T05:53:27.318Z,14.49
2017-05-02T05:54:37.674Z,14.63
2017-05-02T05:55:48.026Z,14.6
2017-05-02T05:56:58.397Z,14.67
2017-05-02T05:58:08.746Z,14.8
2017-05-02T05:59:18.780Z,14.95
2017-05-02T06:00:29.137Z,15.13
2017-05-02T06:01:39.170Z,15.3
2017-05-02T06:02:49.497Z,15.34
2017-05-02T06:03:59.523Z,15.52
2017-05-02T06:05:09.864Z,15.67
2017-05-02T06:06:19.907Z,15.78
2017-05-02T06:07:30.228Z,15.8
2017-05-02T06:08:40.250Z,15.96
2017-05-02T06:09:50.272Z,16.36
2017-05-02T06:11:00.642Z,16.42
2017-05-02T06:12:10.994Z,16.58
2017-05-02T06:13:21.351Z,16.37
2017-05-02T06:14:31.688Z,16.42
2017-05-02T06:15:42.025Z,16.42
2017-05-02T06:16:52.362Z,16.36
2017-05-02T06:18:02.718Z,16.34
2017-05-02T06:19:13.065Z,16.39
2017-05-02T06:20:23.416Z,16.21
2017-05-02T06:21:33.759Z,16.07
2017-05-02T06:22:43.471Z,15.99
2017-05-02T06:23:53.803Z,15.96
2017-05-02T06:25:04.146Z,15.88
2017-05-02T06:26:14.500Z,15.84
2017-05-02T06:27:23.901Z,16.08
2017-05-02T06:28:33.949Z,16.36
2017-05-02T06:29:44.301Z,16.37
2017-05-02T06:30:54.337Z,16.51
2017-05-02T06:32:04.386Z,16.77
2017-05-02T06:33:14.739Z,17.06
2017-05-02T06:34:24.811Z,17.28
2017-05-02T06:35:35.161Z,17.35
2017-05-02T06:36:45.521Z,17.46
2017-05-02T06:37:55.862Z,17.55
2017-05-02T06:39:06.244Z,17.62
2017-05-02T06:40:16.585Z,17.73
2017-05-02T06:41:26.624Z,17.79
2017-05-02T06:42:36.680Z,17.87
2017-05-02T06:43:47.059Z,17.84
2017-05-02T06:44:57.112Z,17.88
2017-05-02T06:46:07.454Z,17.8
2017-05-02T06:47:17.791Z,17.8
2017-05-02T06:48:27.826Z,17.77
2017-05-02T06:49:38.197Z,18.01
2017-05-02T06:50:48.226Z,18.17
2017-05-02T06:51:58.287Z,18.34
2017-05-02T06:53:08.637Z,18.44
2017-05-02T06:54:18.681Z,18.41
2017-05-02T06:55:29.053Z,18.45
2017-05-02T06:56:39.395Z,18.45
2017-05-02T06:57:49.480Z,18.6
2017-05-02T06:58:59.839Z,18.81
2017-05-02T07:00:09.889Z,18.79
2017-05-02T07:01:20.243Z,18.78
2017-05-02T07:02:30.756Z,18.6
2017-05-02T07:03:41.094Z,18.42
2017-05-02T07:04:51.441Z,18.39
2017-05-02T07:06:01.805Z,18.23
2017-05-02T07:07:12.156Z,18.16
2017-05-02T07:08:22.508Z,18.17
2017-05-02T07:09:32.545Z,18.14
2017-05-02T07:10:42.896Z,18.17
2017-05-02T07:11:52.990Z,18.23
2017-05-02T07:13:03.349Z,18.44
2017-05-02T07:14:13.696Z,18.79
2017-05-02T07:15:23.747Z,18.96
2017-05-02T07:16:33.809Z,19.02
2017-05-02T07:17:43.843Z,18.96
2017-05-02T07:18:54.197Z,18.96
2017-05-02T07:20:04.554Z,18.97
2017-05-02T07:21:14.971Z,18.94
2017-05-02T07:22:25.309Z,18.87
2017-05-02T07:23:35.042Z,18.79
2017-05-02T07:24:45.091Z,18.72
2017-05-02T07:25:55.465Z,18.82
2017-05-02T07:27:05.503Z,19.12
2017-05-02T07:28:15.535Z,19.63
2017-05-02T07:29:25.618Z,19.92
2017-05-02T07:30:35.649Z,19.98
2017-05-02T07:31:45.994Z,20.25
2017-05-02T07:32:56.344Z,20.26
2017-05-02T07:34:06.707Z,20.16
2017-05-02T07:35:17.070Z,20.1
2017-05-02T07:36:27.435Z,20.01
2017-05-02T07:37:37.792Z,19.92
2017-05-02T07:38:48.137Z,20.01
2017-05-02T07:39:58.485Z,19.98
2017-05-02T07:41:08.832Z,20.01
2017-05-02T07:42:18.868Z,20.1
2017-05-02T07:43:28.918Z,20.22
2017-05-02T07:44:39.276Z,20.35
2017-05-02T07:45:49.313Z,20.12
2017-05-02T07:46:59.654Z,19.98
2017-05-02T07:48:10.006Z,19.93
2017-05-02T07:49:20.347Z,20.01
2017-05-02T07:50:30.699Z,19.92
2017-05-02T07:51:41.056Z,19.95
2017-05-02T07:52:51.407Z,20.04
2017-05-02T07:54:01.781Z,20.18
2017-05-02T07:55:12.119Z,20.26
2017-05-02T07:56:22.140Z,20.37
2017-05-02T07:57:32.488Z,20.3
2017-05-02T07:58:42.525Z,20.32
2017-05-02T07:59:52.864Z,20.42
2017-05-02T08:01:02.890Z,20.42
2017-05-02T08:02:13.248Z,20.51
2017-05-02T08:03:23.288Z,20.58
2017-05-02T08:04:33.634Z,20.68
2017-05-02T08:05:43.992Z,20.64
2017-05-02T08:06:54.350Z,20.61
2017-05-02T08:08:04.711Z,20.66
2017-05-02T08:09:15.076Z,20.6
2017-05-02T08:10:25.124Z,20.66
2017-05-02T08:11:35.485Z,20.63
2017-05-02T08:12:45.761Z,20.68
2017-05-02T08:13:56.117Z,20.83
2017-05-02T08:15:06.161Z,20.91
2017-05-02T08:16:16.506Z,21.08
2017-05-02T08:17:26.877Z,21.04
2017-05-02T08:18:36.912Z,21.18
2017-05-02T08:19:46.942Z,21.25
2017-05-02T08:20:57.304Z,21.37
2017-05-02T08:22:07.646Z,21.3
2017-05-02T08:23:17.697Z,21.25
2017-05-02T08:24:27.740Z,21.22
2017-05-02T08:25:38.076Z,21.21
2017-05-02T08:26:48.108Z,21.18
2017-05-02T08:27:58.165Z,21.09
2017-05-02T08:29:08.198Z,20.96
2017-05-02T08:30:18.538Z,20.85
2017-05-02T08:31:28.881Z,20.82
2017-05-02T08:32:38.908Z,20.75
2017-05-02T08:33:49.291Z,20.82
2017-05-02T08:34:59.668Z,20.71
2017-05-02T08:36:10.047Z,20.63
2017-05-02T08:37:20.453Z,20.38
2017-05-02T08:38:30.492Z,20.22
2017-05-02T08:39:40.846Z,20.22
2017-05-02T08:40:50.908Z,20.29
2017-05-02T08:42:01.255Z,20.23
2017-05-02T08:43:11.598Z,20.26
2017-05-02T08:44:21.965Z,20.16
2017-05-02T08:45:31.681Z,20.2
2017-05-02T08:46:41.717Z,20.15
2017-05-02T08:47:52.064Z,20.12
2017-05-02T08:49:02.420Z,20.04
2017-05-02T08:50:12.756Z,20.12
2017-05-02T08:51:23.108Z,19.93
2017-05-02T08:52:33.473Z,19.6
2017-05-02T08:53:43.514Z,19.68
2017-05-02T08:54:53.934Z,19.64
2017-05-02T08:56:04.301Z,19.65
2017-05-02T08:57:14.658Z,19.64
2017-05-02T08:58:24.718Z,19.64
2017-05-02T08:59:34.770Z,19.65
2017-05-02T09:00:45.121Z,19.79
2017-05-02T09:01:55.470Z,19.82
2017-05-02T09:03:05.820Z,19.85
2017-05-02T09:04:15.867Z,20
2017-05-02T09:05:26.258Z,19.93
2017-05-02T09:06:36.653Z,19.92
2017-05-02T09:07:47.002Z,19.89
2017-05-02T09:08:57.042Z,19.93
2017-05-02T09:10:07.084Z,20.04
2017-05-02T09:11:17.437Z,20.1
2017-05-02T09:12:27.470Z,20.04
2017-05-02T09:13:37.825Z,20.15
2017-05-02T09:14:47.853Z,20.2
2017-05-02T09:15:57.888Z,20.25
2017-05-02T09:17:07.928Z,20.27
2017-05-02T09:18:18.284Z,20.35
2017-05-02T09:19:28.638Z,20.41
2017-05-02T09:20:38.686Z,20.42
2017-05-02T09:21:48.737Z,20.49
2017-05-02T09:22:58.770Z,20.71
2017-05-02T09:24:09.135Z,20.88
2017-05-02T09:25:19.167Z,21.09
2017-05-02T09:26:29.183Z,20.85
2017-05-02T09:27:39.242Z,20.76
2017-05-02T09:28:49.292Z,20.72
2017-05-02T09:29:59.652Z,20.88
2017-05-02T09:31:11.102Z,20.76
2017-05-02T09:32:21.476Z,21.01
2017-05-02T09:33:31.827Z,20.63
2017-05-02T09:34:42.188Z,20.81
2017-05-02T09:35:52.283Z,20.93
2017-05-02T09:37:02.319Z,20.94
2017-05-02T09:38:12.906Z,21
2017-05-02T09:39:24.715Z,21.18
2017-05-02T09:40:35.069Z,21.15
2017-05-02T09:41:45.122Z,21.23
2017-05-02T09:42:54.872Z,21.22
2017-05-02T09:44:04.597Z,21.23
2017-05-02T09:45:14.643Z,21.21
2017-05-02T09:46:25.012Z,21.19
2017-05-02T09:47:35.420Z,21.09
2017-05-02T09:48:45.447Z,21.15
2017-05-02T09:49:55.798Z,21.04
2017-05-02T09:51:06.146Z,21.12
2017-05-02T09:52:16.514Z,21.09
2017-05-02T09:53:26.867Z,21.08
2017-05-02T09:54:37.230Z,21.13
2017-05-02T09:55:47.292Z,21.04
2017-05-02T09:56:57.633Z,21.19
2017-05-02T09:58:07.992Z,21.27
2017-05-02T09:59:18.031Z,21.33
2017-05-02T10:00:28.411Z,21.45
2017-05-02T10:01:38.464Z,21.48
2017-05-02T10:02:48.845Z,21.52
2017-05-02T10:03:59.210Z,21.45
2017-05-02T10:05:09.307Z,21.51
2017-05-02T10:06:19.661Z,21.61
2017-05-02T10:07:29.724Z,21.61
2017-05-02T10:08:39.789Z,21.62
2017-05-02T10:09:50.142Z,21.61
2017-05-02T10:11:00.188Z,21.76
2017-05-02T10:12:10.537Z,21.82
2017-05-02T10:13:20.690Z,21.93
2017-05-02T10:14:30.742Z,22.04
2017-05-02T10:15:40.774Z,22.15
2017-05-02T10:16:51.134Z,22.22
2017-05-02T10:18:01.517Z,22.15
2017-05-02T10:19:11.877Z,22.33
2017-05-02T10:20:21.914Z,22.42
2017-05-02T10:21:31.940Z,22.45
2017-05-02T10:22:42.287Z,22.48
2017-05-02T10:23:52.318Z,22.52
2017-05-02T10:25:02.662Z,22.45
2017-05-02T10:26:13.025Z,22.34
2017-05-02T10:27:22.750Z,22.42
2017-05-02T10:28:33.095Z,22.49
2017-05-02T10:29:43.445Z,22.54
2017-05-02T10:30:53.786Z,22.6
2017-05-02T10:32:03.838Z,22.61
2017-05-02T10:33:13.867Z,22.71
2017-05-02T10:34:23.911Z,22.81
2017-05-02T10:35:33.634Z,22.86
2017-05-02T10:36:43.696Z,22.94
2017-05-02T10:37:54.042Z,22.97
2017-05-02T10:39:03.768Z,22.91
2017-05-02T10:40:13.814Z,22.86
2017-05-02T10:41:24.166Z,22.86
2017-05-02T10:42:34.514Z,22.97
2017-05-02T10:43:44.895Z,22.99
2017-05-02T10:44:54.941Z,23
2017-05-02T10:46:05.298Z,23
2017-05-02T10:47:15.644Z,22.94
2017-05-02T10:48:25.986Z,23.03
2017-05-02T10:49:36.347Z,23.1
2017-05-02T10:50:46.398Z,23.07
2017-05-02T10:51:56.761Z,23.22
2017-05-02T10:53:07.119Z,23.25
2017-05-02T10:54:17.484Z,23.38
2017-05-02T10:55:27.827Z,23.47
2017-05-02T10:56:37.868Z,23.57
2017-05-02T10:57:48.205Z,23.53
2017-05-02T10:58:58.566Z,23.55
2017-05-02T11:00:08.920Z,23.66
2017-05-02T11:01:19.275Z,23.62
2017-05-02T11:02:29.636Z,23.57
2017-05-02T11:03:40.004Z,23.57
2017-05-02T11:04:49.731Z,23.53
2017-05-02T11:06:00.111Z,23.55
2017-05-02T11:07:10.470Z,23.57
2017-05-02T11:08:20.504Z,23.56
2017-05-02T11:09:30.869Z,23.63
2017-05-02T11:10:41.264Z,23.75
2017-05-02T11:11:51.608Z,23.77
2017-05-02T11:13:01.649Z,23.77
2017-05-02T11:14:11.999Z,23.74
2017-05-02T11:15:22.381Z,23.82
2017-05-02T11:16:32.427Z,23.78
2017-05-02T11:17:42.471Z,23.81
2017-05-02T11:18:52.539Z,23.81
2017-05-02T11:20:02.895Z,23.78
2017-05-02T11:21:13.239Z,23.75
2017-05-02T11:22:23.596Z,23.71
2017-05-02T11:23:33.958Z,23.78
2017-05-02T11:24:44.025Z,23.72
2017-05-02T11:25:54.056Z,23.7
2017-05-02T11:27:04.400Z,23.74
2017-05-02T11:28:14.444Z,23.82
2017-05-02T11:29:24.789Z,23.84
2017-05-02T11:30:35.157Z,23.84
2017-05-02T11:31:45.186Z,23.84
2017-05-02T11:32:55.221Z,23.89
2017-05-02T11:34:05.568Z,23.87
2017-05-02T11:35:15.911Z,23.85
2017-05-02T11:36:26.271Z,23.87
2017-05-02T11:37:36.643Z,23.85
2017-05-02T11:38:47.006Z,23.93
2017-05-02T11:39:57.357Z,23.85
2017-05-02T11:41:07.721Z,23.94
2017-05-02T11:42:18.111Z,24.02
2017-05-02T11:43:28.456Z,24.14
2017-05-02T11:44:38.802Z,24.26
2017-05-02T11:45:48.842Z,24.32
2017-05-02T11:46:58.947Z,24.34
2017-05-02T11:48:09.294Z,24.45
2017-05-02T11:49:19.393Z,24.51
2017-05-02T11:50:29.750Z,24.49
2017-05-02T11:51:40.108Z,24.4
2017-05-02T11:52:50.148Z,24.4
2017-05-02T11:54:00.210Z,24.34
2017-05-02T11:55:10.560Z,24.27
2017-05-02T11:56:20.951Z,24.32
2017-05-02T11:57:31.005Z,24.14
2017-05-02T11:58:41.360Z,23.97
2017-05-02T11:59:51.722Z,23.94
2017-05-02T12:01:02.090Z,23.99
2017-05-02T12:02:12.150Z,24.02
2017-05-02T12:03:22.502Z,24.15
2017-05-02T12:04:32.848Z,24.12
2017-05-02T12:05:43.215Z,24.3
2017-05-02T12:06:53.576Z,24.27
2017-05-02T12:08:03.617Z,24.29
2017-05-02T12:09:13.966Z,24.45
2017-05-02T12:10:24.007Z,24.56
2017-05-02T12:11:34.389Z,24.66
2017-05-02T12:12:44.747Z,24.9
2017-05-02T12:13:55.136Z,25.14
2017-05-02T12:15:05.174Z,25.3
2017-05-02T12:16:15.514Z,25.54
2017-05-02T12:17:25.858Z,25.85
2017-05-02T12:18:36.222Z,25.99
2017-05-02T12:19:46.275Z,26.34
2017-05-02T12:20:55.682Z,26.45
2017-05-02T12:22:05.773Z,26.63
2017-05-02T12:23:16.130Z,26.67
2017-05-02T12:24:26.487Z,26.74
2017-05-02T12:25:36.844Z,26.74
2017-05-02T12:26:47.187Z,26.94
2017-05-02T12:27:57.539Z,26.93
2017-05-02T12:29:07.580Z,26.97
2017-05-02T12:30:17.612Z,27.01
2017-05-02T12:31:27.979Z,26.99
2017-05-02T12:32:38.346Z,27.06
2017-05-02T12:33:48.717Z,27.11
2017-05-02T12:34:58.768Z,27.15
2017-05-02T12:36:09.127Z,27.23
2017-05-02T12:37:19.483Z,27.31
2017-05-02T12:38:29.846Z,27.53
2017-05-02T12:39:39.577Z,27.69
2017-05-02T12:40:49.929Z,27.91
2017-05-02T12:42:00.017Z,28.02
2017-05-02T12:43:10.384Z,28.14
2017-05-02T12:44:20.788Z,28.2
2017-05-02T12:45:31.156Z,28.14
2017-05-02T12:46:41.516Z,27.84
2017-05-02T12:47:51.557Z,27.61
2017-05-02T12:49:01.928Z,27.42
2017-05-02T12:50:12.301Z,27.15
2017-05-02T12:51:22.682Z,26.86
2017-05-02T12:52:33.051Z,26.56
2017-05-02T12:53:43.396Z,26.3
2017-05-02T12:56:53.485Z,25.41
2017-05-02T12:58:03.885Z,25.14
2017-05-02T12:59:14.252Z,25.24
2017-05-02T13:00:24.321Z,25.27
2017-05-02T13:01:34.056Z,25.14
2017-05-02T13:02:44.406Z,25.14
2017-05-02T13:03:54.755Z,25.17
2017-05-02T13:05:05.146Z,25.01
2017-05-02T13:06:15.186Z,24.78
2017-05-02T13:07:25.571Z,24.69
2017-05-02T13:08:35.639Z,24.44
2017-05-02T13:09:46.283Z,24.21
2017-05-02T13:10:56.637Z,24
2017-05-02T13:12:06.982Z,23.99
2017-05-02T13:13:17.338Z,23.85
2017-05-02T13:14:27.723Z,23.72
2017-05-02T13:15:38.093Z,23.56
2017-05-02T13:16:48.439Z,23.5
2017-05-02T13:17:58.522Z,23.38
2017-05-02T13:19:08.583Z,23.25
2017-05-02T13:20:18.943Z,23.19
2017-05-02T13:21:29.300Z,23.16
2017-05-02T13:22:39.648Z,23.14
2017-05-02T13:23:49.706Z,23.09
2017-05-02T13:25:00.090Z,22.92
2017-05-02T13:26:10.479Z,22.89
2017-05-02T13:27:20.828Z,22.89
2017-05-02T13:28:31.209Z,22.85
2017-05-02T13:29:41.573Z,22.75
2017-05-02T13:30:51.976Z,22.67
2017-05-02T13:32:01.999Z,22.71
2017-05-02T13:33:12.367Z,22.86
2017-05-02T13:34:22.398Z,22.92
2017-05-02T13:35:32.834Z,23.01
2017-05-02T13:36:43.196Z,22.96
2017-05-02T13:37:53.554Z,22.91
2017-05-02T13:39:03.940Z,23.01
2017-05-02T13:40:14.336Z,23.09
2017-05-02T13:41:24.721Z,23.25
2017-05-02T13:42:35.116Z,23.45
2017-05-02T13:43:45.515Z,24.12
2017-05-02T13:44:55.612Z,24.45
2017-05-02T13:46:05.978Z,24.85
2017-05-02T13:47:16.315Z,25.29
2017-05-02T13:48:26.368Z,25.48
2017-05-02T13:49:36.717Z,25.59
2017-05-02T13:50:46.751Z,25.81
2017-05-02T13:51:57.106Z,25.93
2017-05-02T13:53:07.506Z,26.01
2017-05-02T13:54:17.240Z,25.99
2017-05-02T13:55:27.612Z,26.03
2017-05-02T13:56:37.667Z,26.19
2017-05-02T13:57:47.436Z,26.24
2017-05-02T13:58:57.847Z,26.27
2017-05-02T14:00:07.941Z,26.19
2017-05-02T14:01:18.333Z,26
2017-05-02T14:02:28.696Z,25.94
2017-05-02T14:03:39.057Z,25.74
2017-05-02T14:04:49.108Z,25.57
2017-05-02T14:05:59.462Z,25.59
2017-05-02T14:07:09.509Z,25.45
2017-05-02T14:08:19.531Z,25.33
2017-05-02T14:09:29.272Z,25.05
2017-05-02T14:10:39.622Z,24.77
2017-05-02T14:11:49.362Z,24.3
2017-05-02T14:12:59.398Z,23.97
2017-05-02T14:14:09.759Z,23.79
2017-05-02T14:15:20.110Z,23.67
2017-05-02T14:16:30.157Z,23.63
2017-05-02T14:17:40.525Z,23.44
2017-05-02T14:18:50.571Z,23.41
2017-05-02T14:20:00.955Z,23.4
2017-05-02T14:21:11.332Z,23.45
2017-05-02T14:22:21.370Z,23.5
2017-05-02T14:23:31.719Z,23.53
2017-05-02T14:24:41.762Z,23.48
2017-05-02T14:25:52.112Z,23.48
2017-05-02T14:27:02.471Z,23.5
2017-05-02T14:28:12.522Z,23.53
2017-05-02T14:29:22.931Z,23.55
2017-05-02T14:30:33.328Z,23.42
2017-05-02T14:31:43.738Z,23.44
2017-05-02T14:32:54.133Z,23.34
2017-05-02T14:34:04.529Z,23.35
2017-05-02T14:35:14.951Z,23.25
2017-05-02T14:36:25.347Z,23.18
2017-05-02T14:37:35.727Z,23.12
2017-05-02T14:38:46.121Z,23.04
2017-05-02T14:39:56.570Z,22.92
2017-05-02T14:41:06.953Z,23.07
2017-05-02T14:42:17.348Z,23.21
2017-05-02T14:43:27.727Z,23.59
2017-05-02T14:44:38.116Z,23.63
2017-05-02T14:45:48.187Z,23.48
2017-05-02T14:46:58.538Z,23.6
2017-05-02T14:48:08.933Z,24.07
2017-05-02T14:49:19.286Z,24.33
2017-05-02T14:50:29.347Z,24.7
2017-05-02T14:51:39.791Z,24.8
2017-05-02T14:52:50.190Z,24.87
2017-05-02T14:54:00.538Z,24.78
2017-05-02T14:55:10.931Z,24.74
2017-05-02T14:56:20.987Z,24.71
2017-05-02T14:57:31.590Z,24.71
2017-05-02T14:58:41.963Z,24.69
2017-05-02T14:59:52.341Z,24.75
2017-05-02T15:01:02.703Z,24.71
2017-05-02T15:02:12.756Z,24.71
2017-05-02T15:03:23.112Z,24.74
2017-05-02T15:04:33.497Z,24.69
2017-05-02T15:05:43.552Z,24.69
2017-05-02T15:06:53.621Z,24.58
2017-05-02T15:08:03.995Z,24.49
2017-05-02T15:09:14.035Z,24.48
2017-05-02T15:10:24.094Z,24.4
2017-05-02T15:11:34.457Z,24.32
2017-05-02T15:12:44.846Z,24.26
2017-05-02T15:13:55.204Z,24.21
2017-05-02T15:15:05.289Z,24.17
2017-05-02T15:16:15.006Z,24.15
2017-05-02T15:17:24.729Z,24.07
2017-05-02T15:18:34.798Z,23.81
2017-05-02T15:19:45.152Z,23.59
2017-05-02T15:20:55.514Z,23.42
2017-05-02T15:22:06.178Z,23.18
2017-05-02T15:23:16.536Z,23.09
2017-05-02T15:24:26.944Z,23.03
2017-05-02T15:25:37.326Z,23.03
2017-05-02T15:26:47.482Z,23.16
2017-05-02T15:27:57.872Z,23.06
2017-05-02T15:29:08.236Z,23.06
2017-05-02T15:30:18.608Z,23.29
2017-05-02T15:31:28.655Z,23.5
2017-05-02T15:32:39.038Z,23.53
2017-05-02T15:33:49.428Z,23.67
2017-05-02T15:34:59.823Z,23.72
2017-05-02T15:36:10.188Z,23.78
2017-05-02T15:37:20.563Z,23.81
2017-05-02T15:38:30.993Z,23.82
2017-05-02T15:39:41.049Z,23.85